Time;durP1;ratioP1;P1;durP2;ratioP2;P2;SDS_P1;SDS_P2;PMS_P1;PMS_P2;Temp;Humidity;BMP_temperature;BMP_pressure;BME280_temperature;BME280_humidity;BME280_pressure;Samples;Min_cycle;Max_cycle;Signal;HPM_P1;HPM_P2
2022/07/23 00:01:22;;;;;;;7.25;5.47;;;20.30;99.90;;;;;;5026241;28;20204;-70
2022/07/23 00:03:49;;;;;;;7.15;5.90;;;20.30;99.90;;;;;;5011235;28;20219;-71
2022/07/23 00:06:15;;;;;;;8.30;5.25;;;20.20;99.90;;;;;;5006817;28;20268;-70
2022/07/23 00:08:40;;;;;;;6.80;5.78;;;20.20;99.90;;;;;;5021516;28;20189;-71
2022/07/23 00:11:06;;;;;;;6.05;5.45;;;20.20;99.90;;;;;;5026741;28;20285;-71
2022/07/23 00:13:32;;;;;;;6.00;5.35;;;20.10;99.90;;;;;;5029544;28;20212;-71
2022/07/23 00:15:57;;;;;;;7.57;5.50;;;20.10;99.90;;;;;;5022898;28;20291;-71
2022/07/23 00:18:23;;;;;;;9.10;5.43;;;20.10;99.90;;;;;;5023252;28;20183;-70
2022/07/23 00:20:48;;;;;;;8.73;5.30;;;20.10;99.90;;;;;;5028889;28;20168;-70
2022/07/23 00:23:14;;;;;;;6.65;5.80;;;20.10;99.90;;;;;;5025399;28;20608;-71
2022/07/23 00:25:40;;;;;;;7.13;5.75;;;20.10;99.90;;;;;;5015222;28;20578;-71
2022/07/23 00:28:05;;;;;;;8.07;5.80;;;20.10;99.90;;;;;;5032803;28;20203;-71
2022/07/23 00:30:31;;;;;;;8.32;5.38;;;20.00;99.90;;;;;;5027283;28;20192;-71
2022/07/23 00:33:03;;;;;;;8.30;5.97;;;20.10;99.90;;;;;;5034538;28;20668;-70
2022/07/23 00:35:31;;;;;;;7.15;5.80;;;20.20;99.90;;;;;;5010613;28;20306;-71
2022/07/23 00:37:58;;;;;;;9.93;6.18;;;20.20;99.90;;;;;;5028896;28;20218;-70
2022/07/23 00:40:24;;;;;;;6.30;5.70;;;20.20;99.90;;;;;;5029227;28;20200;-71
2022/07/23 00:42:49;;;;;;;8.45;5.55;;;20.20;99.90;;;;;;5030317;28;20200;-70
2022/07/23 00:45:15;;;;;;;10.60;5.60;;;20.20;99.90;;;;;;5015690;28;20286;-71
2022/07/23 00:47:41;;;;;;;9.35;6.00;;;20.20;99.90;;;;;;5032829;28;20188;-71
2022/07/23 00:50:08;;;;;;;7.93;5.95;;;20.10;99.90;;;;;;5029120;28;20209;-71
2022/07/23 00:52:35;;;;;;;7.28;5.57;;;20.10;99.90;;;;;;5013107;28;20628;-71
2022/07/23 00:55:03;;;;;;;7.70;5.57;;;20.10;99.90;;;;;;5031402;28;20278;-69
2022/07/23 00:57:29;;;;;;;9.68;6.38;;;20.10;99.90;;;;;;5013965;28;20207;-70
2022/07/23 00:59:56;;;;;;;7.78;6.00;;;20.20;99.90;;;;;;5031560;28;20177;-71
2022/07/23 01:02:21;;;;;;;10.02;6.95;;;20.10;99.90;;;;;;5032594;28;20633;-71
2022/07/23 01:04:47;;;;;;;7.93;6.13;;;20.00;99.90;;;;;;5028843;28;20212;-71
2022/07/23 01:07:12;;;;;;;7.53;5.78;;;19.90;99.90;;;;;;5037962;28;20209;-70
2022/07/23 01:09:38;;;;;;;7.65;6.03;;;19.90;99.90;;;;;;5032448;28;20581;-70
2022/07/23 01:12:05;;;;;;;10.65;6.10;;;19.80;99.90;;;;;;5031093;28;20247;-71
2022/07/23 01:14:30;;;;;;;9.43;6.10;;;19.80;99.90;;;;;;5008607;28;20201;-71
2022/07/23 01:16:56;;;;;;;9.20;5.45;;;19.80;99.90;;;;;;5026576;28;20677;-70
2022/07/23 01:19:21;;;;;;;7.90;5.68;;;19.70;99.90;;;;;;5038501;28;20238;-70
2022/07/23 01:21:50;;;;;;;9.30;5.45;;;19.50;99.90;;;;;;5030072;28;20207;-71
2022/07/23 01:24:19;;;;;;;9.70;5.35;;;19.60;99.90;;;;;;5038652;28;20200;-70
2022/07/23 01:26:45;;;;;;;6.20;5.05;;;19.50;99.90;;;;;;5037348;28;20600;-72
2022/07/23 01:29:12;;;;;;;8.15;5.95;;;19.50;99.90;;;;;;5038311;28;20246;-70
2022/07/23 01:31:37;;;;;;;9.60;5.72;;;19.50;99.90;;;;;;5015753;28;20215;-71
2022/07/23 01:34:04;;;;;;;9.40;6.07;;;19.40;99.90;;;;;;5035380;28;20200;-71
2022/07/23 01:36:30;;;;;;;8.98;6.35;;;19.40;99.90;;;;;;5017208;28;20220;-71
2022/07/23 01:38:55;;;;;;;6.38;5.65;;;19.50;99.90;;;;;;5031162;28;20175;-71
2022/07/23 01:41:21;;;;;;;7.25;5.82;;;19.40;99.90;;;;;;5037428;28;20570;-71
2022/07/23 01:43:47;;;;;;;7.63;6.15;;;19.30;99.90;;;;;;5037414;28;20211;-71
2022/07/23 01:46:12;;;;;;;9.00;6.07;;;19.20;99.90;;;;;;5032729;28;20208;-71
2022/07/23 01:48:38;;;;;;;8.45;5.57;;;19.20;99.90;;;;;;5032135;28;20292;-71
2022/07/23 01:51:04;;;;;;;6.38;5.50;;;19.20;99.90;;;;;;5040602;28;20171;-71
2022/07/23 01:53:31;;;;;;;6.80;5.88;;;19.10;99.90;;;;;;5014463;28;20255;-71
2022/07/23 01:55:57;;;;;;;8.38;5.10;;;19.10;99.90;;;;;;5003321;28;20883;-70
2022/07/23 01:58:23;;;;;;;8.27;6.18;;;19.20;99.90;;;;;;5018432;28;20201;-70
2022/07/23 02:00:49;;;;;;;9.35;6.30;;;19.20;99.90;;;;;;5031704;28;20203;-71
2022/07/23 02:03:14;;;;;;;8.68;6.18;;;19.20;99.90;;;;;;5029585;28;20406;-71
2022/07/23 02:05:40;;;;;;;12.07;6.32;;;19.20;99.90;;;;;;5028898;28;20195;-70
2022/07/23 02:08:06;;;;;;;8.00;5.93;;;19.30;99.90;;;;;;5038399;28;20203;-71
2022/07/23 02:10:31;;;;;;;8.38;5.72;;;19.20;99.90;;;;;;5018920;28;20217;-71
2022/07/23 02:12:57;;;;;;;9.00;5.80;;;19.30;99.90;;;;;;5027636;28;20327;-71
2022/07/23 02:15:23;;;;;;;10.40;6.45;;;19.40;99.90;;;;;;5013993;28;20271;-71
2022/07/23 02:17:49;;;;;;;8.77;6.03;;;19.40;99.90;;;;;;5036519;28;20242;-71
2022/07/23 02:20:14;;;;;;;6.60;5.68;;;19.40;99.90;;;;;;5029761;28;20742;-71
2022/07/23 02:22:40;;;;;;;8.23;6.07;;;19.30;99.90;;;;;;5028675;28;20197;-71
2022/07/23 02:25:06;;;;;;;12.50;6.22;;;19.30;99.90;;;;;;5023090;28;20283;-71
2022/07/23 02:27:32;;;;;;;8.13;6.25;;;19.30;99.90;;;;;;5015742;28;20705;-71
2022/07/23 02:29:58;;;;;;;8.35;6.85;;;19.10;99.90;;;;;;5029664;28;20259;-70
2022/07/23 02:32:24;;;;;;;7.80;5.90;;;19.00;99.90;;;;;;5017806;28;20295;-71
2022/07/23 02:34:50;;;;;;;9.32;6.35;;;19.10;99.90;;;;;;5030731;28;20203;-71
2022/07/23 02:37:16;;;;;;;7.05;5.85;;;19.10;99.90;;;;;;5014461;28;20265;-70
2022/07/23 02:39:41;;;;;;;6.75;6.05;;;19.00;99.90;;;;;;5026565;28;20299;-70
2022/07/23 02:42:07;;;;;;;7.22;6.35;;;18.90;99.90;;;;;;5036296;28;20186;-71
2022/07/23 02:44:33;;;;;;;7.10;5.43;;;19.00;99.90;;;;;;5029867;28;20192;-71
2022/07/23 02:46:58;;;;;;;9.45;6.18;;;18.90;99.90;;;;;;5025357;28;20207;-70
2022/07/23 02:49:24;;;;;;;6.28;5.40;;;18.80;99.90;;;;;;5030017;28;20208;-68
2022/07/23 02:51:49;;;;;;;8.32;5.47;;;18.70;99.90;;;;;;5035397;28;20204;-69
2022/07/23 02:54:15;;;;;;;7.80;6.10;;;18.80;99.90;;;;;;5024150;28;20180;-70
2022/07/23 02:56:41;;;;;;;9.27;5.95;;;18.80;99.90;;;;;;5026929;28;20275;-70
2022/07/23 02:59:07;;;;;;;9.95;6.47;;;18.70;99.90;;;;;;5020766;28;20220;-69
2022/07/23 03:01:32;;;;;;;8.63;5.70;;;18.70;99.90;;;;;;5026737;28;20219;-70
2022/07/23 03:03:58;;;;;;;10.27;6.25;;;18.70;99.90;;;;;;5015258;28;20771;-70
2022/07/23 03:06:23;;;;;;;8.07;6.47;;;18.60;99.90;;;;;;5011067;28;20227;-71
2022/07/23 03:08:49;;;;;;;8.52;6.18;;;18.70;99.90;;;;;;5032623;28;20255;-69
2022/07/23 03:11:15;;;;;;;11.02;6.43;;;18.60;99.90;;;;;;5011370;28;20203;-68
2022/07/23 03:13:40;;;;;;;10.25;5.82;;;18.60;99.90;;;;;;5028838;28;20209;-70
2022/07/23 03:16:06;;;;;;;7.28;5.30;;;18.50;99.90;;;;;;5048653;28;20263;-70
2022/07/23 03:18:33;;;;;;;8.68;6.47;;;18.50;99.90;;;;;;5045214;28;20216;-70
2022/07/23 03:20:58;;;;;;;8.45;5.47;;;18.60;99.90;;;;;;5019221;28;20180;-70
2022/07/23 03:23:24;;;;;;;9.63;5.93;;;18.60;99.90;;;;;;5026670;28;20225;-70
2022/07/23 03:25:50;;;;;;;8.88;6.05;;;18.50;99.90;;;;;;5028705;28;20615;-70
2022/07/23 03:28:16;;;;;;;9.45;5.70;;;18.50;99.90;;;;;;5022701;28;20204;-70
2022/07/23 03:30:43;;;;;;;9.82;5.35;;;18.60;99.90;;;;;;5028421;28;20304;-69
2022/07/23 03:33:08;;;;;;;9.02;5.55;;;18.50;99.90;;;;;;5024725;28;20208;-69
2022/07/23 03:35:34;;;;;;;8.57;5.40;;;18.50;99.90;;;;;;5024400;28;20282;-70
2022/07/23 03:38:00;;;;;;;9.32;4.78;;;18.60;99.90;;;;;;5023152;28;20274;-69
2022/07/23 03:40:25;;;;;;;8.15;4.25;;;18.70;99.90;;;;;;5022181;28;20624;-70
2022/07/23 03:42:51;;;;;;;6.38;3.95;;;18.60;99.90;;;;;;5030468;28;20746;-70
2022/07/23 03:45:17;;;;;;;5.25;3.80;;;18.70;99.90;;;;;;5024347;28;20235;-70
2022/07/23 03:47:44;;;;;;;7.80;3.30;;;18.70;99.90;;;;;;5028716;28;20176;-70
2022/07/23 03:50:10;;;;;;;5.40;3.60;;;18.70;99.90;;;;;;5014679;28;20204;-70
2022/07/23 03:52:35;;;;;;;5.82;3.22;;;18.70;99.90;;;;;;5027955;28;20209;-70
2022/07/23 03:55:02;;;;;;;6.38;3.28;;;18.70;99.90;;;;;;5030163;28;20287;-70
2022/07/23 03:57:28;;;;;;;5.32;3.17;;;18.70;99.90;;;;;;5024603;28;20299;-70
2022/07/23 03:59:53;;;;;;;4.72;3.15;;;18.80;99.90;;;;;;5025078;28;20244;-67
2022/07/23 04:02:19;;;;;;;5.65;3.20;;;18.60;99.90;;;;;;5026327;28;20215;-70
2022/07/23 04:04:44;;;;;;;4.07;3.22;;;18.70;99.90;;;;;;5025358;28;20216;-69
2022/07/23 04:07:10;;;;;;;5.70;2.88;;;18.60;99.90;;;;;;5028329;28;20219;-73
2022/07/23 04:09:36;;;;;;;4.68;2.50;;;18.70;99.90;;;;;;5027552;28;20271;-69
2022/07/23 04:12:01;;;;;;;5.43;2.92;;;18.60;99.90;;;;;;5027221;28;20176;-69
2022/07/23 04:14:27;;;;;;;3.15;2.80;;;18.80;99.90;;;;;;5024150;28;20216;-70
2022/07/23 04:16:52;;;;;;;6.90;3.25;;;18.80;99.90;;;;;;5024564;28;20258;-69
2022/07/23 04:19:18;;;;;;;6.57;3.22;;;18.70;99.90;;;;;;5023883;28;20196;-70
2022/07/23 04:21:43;;;;;;;5.15;3.10;;;18.70;99.90;;;;;;5025107;28;20208;-70
2022/07/23 04:24:09;;;;;;;5.45;2.50;;;18.70;99.90;;;;;;5022514;28;20283;-71
2022/07/23 04:26:34;;;;;;;5.78;2.50;;;18.70;99.90;;;;;;5026875;28;20228;-70
2022/07/23 04:29:00;;;;;;;4.97;2.60;;;18.60;99.90;;;;;;5007238;28;20207;-70
2022/07/23 04:31:26;;;;;;;3.63;2.20;;;18.60;99.90;;;;;;5006501;28;20604;-70
2022/07/23 04:33:51;;;;;;;6.78;2.72;;;18.70;99.90;;;;;;5024737;28;20262;-69
2022/07/23 04:36:17;;;;;;;6.13;2.85;;;18.50;99.90;;;;;;5023744;28;20638;-70
2022/07/23 04:38:42;;;;;;;6.53;2.60;;;18.30;99.90;;;;;;5035735;22;20259;-74
2022/07/23 04:41:08;;;;;;;9.10;2.90;;;18.10;99.90;;;;;;5011755;28;20201;-73
2022/07/23 04:43:33;;;;;;;8.57;2.80;;;18.00;99.90;;;;;;5009682;28;20218;-73
2022/07/23 04:45:59;;;;;;;4.30;2.67;;;18.00;99.90;;;;;;5003557;28;20216;-73
2022/07/23 04:48:25;;;;;;;8.50;3.10;;;17.90;99.90;;;;;;5011100;28;20260;-72
2022/07/23 04:50:50;;;;;;;5.05;2.65;;;18.00;99.90;;;;;;4994655;28;20205;-73
2022/07/23 04:53:17;;;;;;;7.03;2.58;;;17.70;99.90;;;;;;4990450;28;20618;-72
2022/07/23 04:55:43;;;;;;;8.18;2.60;;;17.80;99.90;;;;;;5014130;28;20209;-73
2022/07/23 04:58:08;;;;;;;6.80;3.22;;;17.70;99.90;;;;;;4993839;28;20209;-73
2022/07/23 05:00:34;;;;;;;5.70;2.60;;;17.80;99.90;;;;;;4988397;28;20348;-73
2022/07/23 05:02:59;;;;;;;3.83;2.70;;;17.50;99.90;;;;;;4993858;28;20220;-73
2022/07/23 05:05:25;;;;;;;5.57;2.33;;;17.20;99.90;;;;;;5003303;28;20213;-73
2022/07/23 05:07:51;;;;;;;3.50;2.70;;;17.10;99.90;;;;;;5018269;28;20701;-73
2022/07/23 05:10:16;;;;;;;4.72;2.45;;;17.30;99.90;;;;;;5010903;28;20593;-73
2022/07/23 05:12:42;;;;;;;8.57;2.67;;;17.20;99.90;;;;;;4994961;28;20204;-73
2022/07/23 05:15:08;;;;;;;4.15;2.58;;;17.30;99.90;;;;;;5009909;28;20639;-73
2022/07/23 05:17:33;;;;;;;13.45;3.47;;;17.40;99.90;;;;;;5009746;28;20205;-74
2022/07/23 05:19:59;;;;;;;7.85;2.42;;;17.60;99.90;;;;;;5008914;28;20229;-72
2022/07/23 05:22:24;;;;;;;3.80;2.60;;;17.40;99.90;;;;;;5002737;28;20213;-73
2022/07/23 05:24:50;;;;;;;7.15;2.83;;;17.20;99.90;;;;;;5012651;28;20212;-72
2022/07/23 05:27:15;;;;;;;7.28;3.25;;;17.10;99.90;;;;;;5007407;28;20192;-72
2022/07/23 05:29:41;;;;;;;5.40;2.63;;;17.40;99.90;;;;;;5008780;28;20200;-73
2022/07/23 05:32:06;;;;;;;7.10;2.47;;;17.30;99.90;;;;;;5005321;28;20205;-73
2022/07/23 05:34:32;;;;;;;6.97;3.28;;;17.20;99.90;;;;;;5007920;28;20217;-73
2022/07/23 05:36:57;;;;;;;6.65;3.00;;;17.30;99.90;;;;;;5009538;28;20217;-73
2022/07/23 05:39:23;;;;;;;7.00;3.25;;;17.20;99.90;;;;;;5002208;28;20703;-72
2022/07/23 05:41:48;;;;;;;6.15;3.30;;;17.20;99.90;;;;;;5014086;28;20187;-72
2022/07/23 05:44:14;;;;;;;9.48;3.30;;;17.50;99.90;;;;;;5007536;28;20218;-73
2022/07/23 05:46:39;;;;;;;5.85;3.13;;;17.60;99.90;;;;;;5010131;28;20262;-73
2022/07/23 05:49:05;;;;;;;7.20;3.10;;;17.70;99.90;;;;;;5010032;28;20316;-72
2022/07/23 05:51:31;;;;;;;7.53;2.88;;;17.60;99.90;;;;;;4997875;28;20698;-73
2022/07/23 05:53:56;;;;;;;6.20;3.17;;;17.50;99.90;;;;;;5011779;28;20651;-72
2022/07/23 05:56:22;;;;;;;8.50;2.90;;;17.60;99.90;;;;;;5007313;28;20296;-73
2022/07/23 05:58:47;;;;;;;3.97;2.72;;;17.50;99.90;;;;;;5008954;28;20216;-72
2022/07/23 06:01:13;;;;;;;5.60;3.17;;;17.50;99.90;;;;;;5006503;28;20211;-75
2022/07/23 06:03:39;;;;;;;6.72;3.22;;;17.30;99.90;;;;;;5011145;28;20235;-72
2022/07/23 06:06:05;;;;;;;6.07;3.10;;;17.30;99.90;;;;;;5001914;28;20173;-71
2022/07/23 06:08:31;;;;;;;8.50;3.33;;;17.20;99.90;;;;;;5014609;28;20710;-72
2022/07/23 06:10:56;;;;;;;4.18;2.78;;;17.10;99.90;;;;;;5013082;28;20208;-72
2022/07/23 06:13:22;;;;;;;3.97;2.88;;;16.90;99.90;;;;;;5010128;28;20239;-71
2022/07/23 06:15:48;;;;;;;12.23;3.85;;;16.90;99.90;;;;;;5016524;28;20274;-72
2022/07/23 06:18:13;;;;;;;4.00;2.97;;;16.90;99.90;;;;;;4996141;28;20559;-74
2022/07/23 06:20:39;;;;;;;8.38;3.33;;;16.80;99.90;;;;;;5013560;28;20185;-72
2022/07/23 06:23:05;;;;;;;7.00;4.63;;;16.90;99.90;;;;;;5002054;28;20229;-71
2022/07/23 06:25:30;;;;;;;8.68;3.83;;;16.90;99.90;;;;;;5017045;28;20263;-72
2022/07/23 06:27:56;;;;;;;5.28;3.40;;;17.00;99.90;;;;;;5012738;28;20211;-72
2022/07/23 06:30:21;;;;;;;10.75;4.32;;;17.10;99.90;;;;;;5006820;28;20208;-72
2022/07/23 06:32:48;;;;;;;8.00;3.70;;;17.40;99.90;;;;;;5012878;28;20184;-72
2022/07/23 06:35:14;;;;;;;7.65;3.45;;;17.40;99.90;;;;;;5010951;28;20205;-72
2022/07/23 06:37:39;;;;;;;6.03;4.25;;;17.10;99.90;;;;;;5018306;28;20215;-72
2022/07/23 06:40:05;;;;;;;5.22;3.60;;;17.10;99.90;;;;;;5017468;28;20220;-73
2022/07/23 06:42:31;;;;;;;6.10;4.43;;;17.10;99.90;;;;;;5026689;28;20212;-74
2022/07/23 06:44:57;;;;;;;6.68;3.92;;;17.50;99.90;;;;;;5022155;28;20204;-72
2022/07/23 06:47:22;;;;;;;6.20;3.60;;;17.60;99.90;;;;;;5013283;28;20232;-73
2022/07/23 06:49:48;;;;;;;5.50;3.28;;;17.50;99.90;;;;;;5016835;28;20697;-73
2022/07/23 06:52:13;;;;;;;5.80;3.90;;;17.50;99.90;;;;;;5000242;28;20220;-72
2022/07/23 06:54:39;;;;;;;4.18;3.58;;;17.60;99.90;;;;;;5020332;28;20579;-72
2022/07/23 06:57:05;;;;;;;7.72;3.92;;;17.80;99.90;;;;;;5014241;28;20872;-72
2022/07/23 06:59:30;;;;;;;9.77;5.22;;;17.80;99.90;;;;;;5016133;28;20207;-74
2022/07/23 07:01:57;;;;;;;6.90;3.95;;;17.90;99.90;;;;;;4997443;28;20263;-70
2022/07/23 07:04:23;;;;;;;6.13;3.97;;;17.90;99.90;;;;;;5010282;28;20217;-73
2022/07/23 07:06:49;;;;;;;7.68;3.92;;;17.70;99.90;;;;;;5013714;28;20204;-72
2022/07/23 07:09:14;;;;;;;7.55;4.05;;;17.60;99.90;;;;;;5017086;28;20283;-72
2022/07/23 07:11:40;;;;;;;5.82;3.42;;;17.70;99.90;;;;;;5015525;28;20181;-72
2022/07/23 07:14:06;;;;;;;5.38;3.60;;;17.80;99.90;;;;;;5008799;28;20208;-72
2022/07/23 07:16:31;;;;;;;7.10;3.88;;;17.80;99.90;;;;;;5016924;28;20208;-73
2022/07/23 07:18:57;;;;;;;5.15;3.80;;;17.80;99.90;;;;;;5017432;28;20216;-72
2022/07/23 07:21:23;;;;;;;6.22;3.85;;;18.20;99.90;;;;;;5010377;28;20245;-72
2022/07/23 07:23:48;;;;;;;6.63;3.80;;;18.40;99.90;;;;;;5014537;28;20188;-72
2022/07/23 07:26:14;;;;;;;6.70;3.97;;;18.60;99.90;;;;;;5019204;28;20259;-73
2022/07/23 07:28:39;;;;;;;8.75;4.30;;;18.80;99.90;;;;;;5014732;28;20205;-72
2022/07/23 07:31:05;;;;;;;8.95;4.38;;;18.80;99.90;;;;;;5008131;28;20209;-73
2022/07/23 07:33:30;;;;;;;7.78;4.70;;;18.90;99.90;;;;;;5014856;28;20758;-72
2022/07/23 07:35:56;;;;;;;7.70;4.40;;;18.80;99.90;;;;;;4996754;28;20228;-72
2022/07/23 07:38:21;;;;;;;6.10;4.50;;;18.90;99.90;;;;;;5008928;28;20296;-71
2022/07/23 07:40:47;;;;;;;7.55;4.35;;;19.00;99.90;;;;;;4998650;28;20208;-72
2022/07/23 07:43:13;;;;;;;6.68;4.10;;;19.20;99.90;;;;;;5017462;28;20209;-72
2022/07/23 07:45:39;;;;;;;6.15;4.15;;;19.20;99.90;;;;;;5014640;28;20220;-72
2022/07/23 07:48:05;;;;;;;7.53;4.15;;;19.60;99.90;;;;;;4997197;28;20177;-72
2022/07/23 07:50:30;;;;;;;7.75;3.92;;;19.70;99.90;;;;;;5018707;28;20558;-72
2022/07/23 07:52:56;;;;;;;9.50;3.85;;;19.70;99.90;;;;;;5017113;28;20223;-72
2022/07/23 07:55:22;;;;;;;5.32;3.67;;;19.70;99.90;;;;;;4992729;28;20298;-71
2022/07/23 07:57:48;;;;;;;5.60;3.60;;;19.90;99.90;;;;;;5015179;28;20216;-72
2022/07/23 08:00:13;;;;;;;6.18;3.47;;;20.60;99.90;;;;;;5008574;28;20576;-72
2022/07/23 08:02:50;;;;;;;6.32;3.55;;;21.30;99.90;;;;;;5012437;28;20178;-73
2022/07/23 08:05:23;;;;;;;9.88;3.08;;;22.00;99.90;;;;;;5007429;28;20232;-71
2022/07/23 08:07:49;;;;;;;6.70;3.08;;;23.20;99.90;;;;;;5010902;28;20614;-71
2022/07/23 08:10:15;;;;;;;6.00;3.00;;;25.60;99.90;;;;;;4992128;28;20227;-72
2022/07/23 08:12:45;;;;;;;5.75;2.97;;;26.50;99.90;;;;;;5009247;28;21024;-71
2022/07/23 08:15:15;;;;;;;6.10;2.20;;;27.10;99.90;;;;;;4991360;28;20177;-72
2022/07/23 08:17:43;;;;;;;5.43;2.50;;;27.80;99.90;;;;;;5010525;28;20176;-70
2022/07/23 08:20:10;;;;;;;3.78;1.95;;;28.20;99.90;;;;;;5006344;28;20586;-72
2022/07/23 08:22:57;;;;;;;5.70;2.15;;;29.00;99.90;;;;;;5008600;28;20201;-72
2022/07/23 08:25:41;;;;;;;4.20;1.73;;;29.50;99.90;;;;;;5008508;28;20219;-72
2022/07/23 08:28:09;;;;;;;2.70;1.63;;;30.00;99.90;;;;;;4991488;28;20205;-76
2022/07/23 08:30:36;;;;;;;3.38;1.40;;;30.30;99.90;;;;;;4993471;28;20208;-73
2022/07/23 08:33:04;;;;;;;2.50;1.80;;;30.80;99.90;;;;;;4993425;28;20173;-73
2022/07/23 08:35:32;;;;;;;4.60;2.55;;;30.50;99.90;;;;;;5008895;28;20205;-71
2022/07/23 08:37:59;;;;;;;4.25;2.10;;;31.00;99.90;;;;;;5008634;28;20209;-71
2022/07/23 08:40:31;;;;;;;11.00;6.80;;;30.10;99.90;;;;;;5005699;28;20264;-71
2022/07/23 08:42:57;;;;;;;5.68;3.22;;;30.20;99.90;;;;;;5007141;28;20288;-72
2022/07/23 08:45:25;;;;;;;4.72;2.03;;;30.80;99.90;;;;;;5009272;28;20300;-72
2022/07/23 08:47:58;;;;;;;4.53;2.50;;;30.60;99.90;;;;;;5007545;28;20201;-75
2022/07/23 08:50:24;;;;;;;3.00;1.73;;;30.10;99.90;;;;;;4990438;28;20345;-72
2022/07/23 08:52:51;;;;;;;4.40;2.08;;;29.80;99.90;;;;;;5016704;28;20283;-73
2022/07/23 08:55:18;;;;;;;5.22;2.67;;;30.30;99.90;;;;;;5011345;28;20201;-72
2022/07/23 08:57:47;;;;;;;7.43;2.50;;;30.50;99.90;;;;;;5011750;28;20231;-73
2022/07/23 09:00:13;;;;;;;4.50;2.15;;;31.00;99.90;;;;;;5005520;28;20197;-73
2022/07/23 09:02:41;;;;;;;4.65;1.90;;;30.40;99.90;;;;;;5013264;28;20189;-73
2022/07/23 09:05:07;;;;;;;4.07;2.45;;;30.70;99.90;;;;;;5005058;28;20220;-73
2022/07/23 09:07:32;;;;;;;2.33;1.67;;;30.20;99.90;;;;;;5010191;28;20208;-73
2022/07/23 09:10:08;;;;;;;3.75;2.25;;;30.10;99.90;;;;;;4998937;28;20266;-73
2022/07/23 09:12:34;;;;;;;5.20;2.22;;;29.70;99.90;;;;;;5007400;28;20213;-72
2022/07/23 09:15:06;;;;;;;2.22;1.92;;;29.40;99.90;;;;;;5008434;28;20633;-73
2022/07/23 09:17:38;;;;;;;4.43;2.28;;;29.00;99.90;;;;;;4991280;28;20217;-72
2022/07/23 09:20:09;;;;;;;5.47;2.88;;;29.30;99.90;;;;;;5005688;28;20201;-72
2022/07/23 09:22:34;;;;;;;7.47;4.22;;;29.30;99.90;;;;;;4987913;28;20213;-72
2022/07/23 09:25:06;;;;;;;10.93;6.05;;;30.50;99.90;;;;;;4993626;28;20209;-73
2022/07/23 09:27:50;;;;;;;4.90;2.30;;;31.50;99.90;;;;;;4992950;28;20585;-73
2022/07/23 09:30:16;;;;;;;5.85;3.22;;;30.80;99.90;;;;;;4990796;28;20228;-73
2022/07/23 09:32:42;;;;;;;5.78;3.30;;;31.00;99.90;;;;;;4991832;28;20264;-72
2022/07/23 09:35:08;;;;;;;6.07;3.30;;;30.70;99.90;;;;;;4992825;28;20214;-72
2022/07/23 09:37:34;;;;;;;6.53;3.20;;;30.30;99.90;;;;;;4995839;28;20221;-74
2022/07/23 09:40:09;;;;;;;5.00;2.78;;;30.40;99.90;;;;;;4986832;28;20232;-72
2022/07/23 09:42:34;;;;;;;2.28;2.08;;;30.60;99.90;;;;;;4998067;28;20219;-71
2022/07/23 09:45:00;;;;;;;4.18;2.90;;;30.50;99.90;;;;;;4989865;28;20663;-73
2022/07/23 09:47:31;;;;;;;6.50;3.92;;;29.80;99.90;;;;;;4989758;28;20209;-71
2022/07/23 09:50:11;;;;;;;6.15;4.32;;;28.70;99.90;;;;;;4987637;28;20228;-72
2022/07/23 09:52:48;;;;;;;5.47;2.72;;;28.60;99.90;;;;;;4994860;28;20213;-75
2022/07/23 09:55:15;;;;;;;4.78;2.75;;;28.90;99.90;;;;;;4987059;28;20260;-71
2022/07/23 09:57:44;;;;;;;8.23;3.90;;;27.90;99.90;;;;;;4994161;28;20783;-70
2022/07/23 10:00:10;;;;;;;8.35;4.15;;;28.10;99.90;;;;;;4990925;28;20198;-72
2022/07/23 10:02:38;;;;;;;4.80;3.25;;;28.20;99.90;;;;;;4993134;28;20257;-71
2022/07/23 10:05:04;;;;;;;6.25;3.28;;;28.70;99.90;;;;;;4984761;28;20209;-72
2022/07/23 10:07:41;;;;;;;4.53;3.13;;;28.40;99.90;;;;;;4988266;28;20564;-77
2022/07/23 10:10:08;;;;;;;4.22;2.78;;;27.80;99.90;;;;;;4986916;28;20613;-72
2022/07/23 10:15:02;;;;;;;5.80;4.00;;;27.40;99.90;;;;;;4988590;28;20240;-73
2022/07/23 10:17:29;;;;;;;7.18;4.15;;;27.10;99.90;;;;;;4991880;28;20210;-71
2022/07/23 10:19:56;;;;;;;7.53;3.70;;;26.80;99.90;;;;;;4992251;28;21056;-72
2022/07/23 10:22:25;;;;;;;7.55;4.35;;;26.40;99.90;;;;;;4988691;28;20240;-72
2022/07/23 10:25:28;;;;;;;4.05;2.97;;;26.10;99.90;;;;;;4991722;28;20713;-72
2022/07/23 10:28:09;;;;;;;6.68;3.00;;;26.00;99.90;;;;;;4990679;28;20217;-71
2022/07/23 10:31:00;;;;;;;7.53;3.40;;;25.90;99.90;;;;;;4991066;28;20213;-74
2022/07/23 10:33:52;;;;;;;5.60;3.15;;;25.60;99.90;;;;;;4991827;28;20213;-72
2022/07/23 10:36:44;;;;;;;4.78;3.00;;;25.40;99.90;;;;;;4991960;28;20209;-73
2022/07/23 10:39:21;;;;;;;5.75;3.17;;;25.30;99.90;;;;;;4988078;28;20309;-72
2022/07/23 10:41:47;;;;;;;5.93;3.47;;;25.60;99.90;;;;;;4993661;28;20227;-73
2022/07/23 10:44:15;;;;;;;3.85;2.88;;;26.20;99.90;;;;;;4987601;28;20213;-73
2022/07/23 10:49:37;;;;;;;5.82;3.10;;;26.60;99.90;;;;;;4984501;28;20308;-72
2022/07/23 10:52:21;;;;;;;5.28;3.13;;;26.00;99.90;;;;;;4994840;28;20202;-73
2022/07/23 10:54:50;;;;;;;4.35;3.45;;;25.50;99.90;;;;;;4988446;28;20580;-73
2022/07/23 10:57:19;;;;;;;5.00;2.80;;;25.50;99.90;;;;;;4988027;28;20175;-73
2022/07/23 11:00:07;;;;;;;5.40;2.80;;;25.60;99.90;;;;;;4991211;28;20198;-73
2022/07/23 11:02:33;;;;;;;4.28;2.95;;;25.70;99.90;;;;;;4990809;28;20207;-73
2022/07/23 11:05:07;;;;;;;7.32;2.92;;;26.00;99.90;;;;;;4983556;28;20355;-72
2022/07/23 11:07:33;;;;;;;3.72;2.63;;;26.00;99.90;;;;;;4989445;28;20212;-72
2022/07/23 11:09:59;;;;;;;7.68;3.63;;;26.30;99.90;;;;;;4992829;28;20297;-73
2022/07/23 11:12:27;;;;;;;7.97;3.65;;;26.20;99.90;;;;;;4987241;28;20644;-72
2022/07/23 11:15:05;;;;;;;5.47;3.47;;;26.20;99.90;;;;;;4985635;28;20169;-71
2022/07/23 11:17:33;;;;;;;6.65;4.95;;;26.00;99.90;;;;;;4985897;28;20672;-71
2022/07/23 11:20:11;;;;;;;4.95;3.10;;;25.80;99.90;;;;;;4989787;28;20237;-73
2022/07/23 11:22:47;;;;;;;6.05;3.17;;;25.70;99.90;;;;;;4983833;28;20237;-72
2022/07/23 11:25:32;;;;;;;5.72;3.38;;;26.10;99.90;;;;;;4995277;28;20221;-72
2022/07/23 11:28:20;;;;;;;6.40;3.85;;;26.50;99.90;;;;;;4985448;28;20235;-72
2022/07/23 11:30:47;;;;;;;4.97;3.13;;;26.30;99.90;;;;;;4987851;28;20210;-73
2022/07/23 11:33:13;;;;;;;5.25;3.03;;;26.40;99.90;;;;;;4989085;28;20591;-73
2022/07/23 11:35:44;;;;;;;5.20;3.75;;;26.70;99.90;;;;;;4991012;28;20257;-72
2022/07/23 11:38:22;;;;;;;5.78;3.58;;;26.70;99.90;;;;;;4989541;28;20706;-72
2022/07/23 11:40:54;;;;;;;5.70;4.05;;;27.00;99.90;;;;;;4989365;28;20277;-72
2022/07/23 11:43:20;;;;;;;4.80;3.75;;;27.40;99.90;;;;;;4994723;28;20214;-72
2022/07/23 11:45:50;;;;;;;6.63;3.30;;;27.40;99.90;;;;;;4992231;28;20251;-72
2022/07/23 11:48:22;;;;;;;5.20;3.53;;;26.90;99.90;;;;;;4988951;28;20252;-72
2022/07/23 11:50:49;;;;;;;5.72;2.97;;;26.70;99.90;;;;;;4994016;28;20642;-72
2022/07/23 11:53:32;;;;;;;7.07;3.17;;;26.40;99.90;;;;;;4993380;28;20595;-73
2022/07/23 11:56:09;;;;;;;5.35;2.78;;;26.40;99.90;;;;;;4991856;28;20208;-72
2022/07/23 11:58:35;;;;;;;5.13;3.67;;;26.40;99.90;;;;;;4988017;28;20567;-72
2022/07/23 12:01:01;;;;;;;8.25;3.95;;;26.40;99.90;;;;;;4990651;28;20309;-72
2022/07/23 12:03:27;;;;;;;8.48;4.30;;;26.40;99.90;;;;;;4992507;28;20700;-73
2022/07/23 12:05:59;;;;;;;4.78;2.88;;;26.20;99.90;;;;;;4992665;28;20189;-72
2022/07/23 12:08:25;;;;;;;5.05;2.97;;;26.10;99.90;;;;;;4992905;28;20212;-75
2022/07/23 12:10:51;;;;;;;6.57;3.30;;;26.00;99.90;;;;;;4994185;28;20210;-72
2022/07/23 12:13:18;;;;;;;4.72;3.20;;;26.10;99.90;;;;;;4987874;28;20214;-72
2022/07/23 12:15:52;;;;;;;4.45;3.25;;;26.10;99.90;;;;;;4989840;28;20204;-72
2022/07/23 12:18:25;;;;;;;5.97;3.78;;;25.90;99.90;;;;;;4989553;28;20228;-72
2022/07/23 12:20:58;;;;;;;4.65;3.15;;;25.80;99.90;;;;;;4990622;28;20170;-72
2022/07/23 12:23:26;;;;;;;5.95;4.65;;;26.00;99.90;;;;;;4991949;28;20212;-73
2022/07/23 12:25:53;;;;;;;5.28;4.00;;;26.20;99.90;;;;;;4990458;28;20212;-73
2022/07/23 12:28:21;;;;;;;6.70;3.70;;;26.00;99.90;;;;;;4987771;28;20683;-73
2022/07/23 12:30:52;;;;;;;5.72;4.28;;;25.80;99.90;;;;;;4992161;28;20235;-73
2022/07/23 12:33:28;;;;;;;5.65;3.67;;;25.90;99.90;;;;;;4988613;28;20174;-72
2022/07/23 12:35:56;;;;;;;5.97;3.60;;;25.90;99.90;;;;;;4991003;28;20183;-72
2022/07/23 12:38:24;;;;;;;5.72;3.55;;;25.90;99.90;;;;;;4985590;28;20249;-71
2022/07/23 12:40:57;;;;;;;3.72;3.13;;;25.60;99.90;;;;;;4994055;28;20209;-72
2022/07/23 12:43:31;;;;;;;7.47;3.47;;;25.50;99.90;;;;;;4985559;28;20209;-72
2022/07/23 12:46:02;;;;;;;5.10;3.45;;;25.50;99.90;;;;;;4984559;28;20210;-72
2022/07/23 12:48:30;;;;;;;5.60;3.20;;;25.30;99.90;;;;;;4989181;28;20599;-72
2022/07/23 12:51:17;;;;;;;6.07;2.90;;;25.50;99.90;;;;;;4989335;28;20174;-72
2022/07/23 12:53:45;;;;;;;5.03;3.53;;;25.60;99.90;;;;;;4995615;28;20254;-73